Nearby METAR Reports

 

KISP - Islip, New York, USA
Distance from station: SW 4mi, 6km
Updated: Wed, 04/14/2021 12:56 am EDT
Mostly cloudy
Mostly cloudy
 Wind from WSW
Wind: WSW 6 mph , 9 km/h
Temperature: 46°F , 8°C
Wind Chill: 43°F , 6°C
Dew Point: 43°F , 6°C
Humidity: 87%
Barometer: 30.08 inHg , 1018.6 hPa
Clouds: Mostly cloudy
Visibility: 10 miles , 16 km
Cloud details: Mostly cloudy 7000 ft
2021/04/14 04:56 KISP 140456Z AUTO 25005KT 10SM BKN070 08/06 A3008 RMK AO2 SLP186 T00780056 401780056
KHWV - Shirley, New York, USA
Distance from station: E 10mi, 16km
Updated: Wed, 04/14/2021 12:56 am EDT
Clear
Clear
 Wind from SW
Wind: SW 3 mph , 6 km/h
Temperature: 45°F , 7°C
Dew Point: 39°F , 4°C
Humidity: 81%
Barometer: 30.08 inHg , 1018.6 hPa
Clouds: Clear
Visibility: 10 miles , 16 km
2021/04/14 04:56 KHWV 140456Z AUTO 22003KT 10SM CLR 07/04 A3008 RMK AO2 SLP186 T00720039 401720056
 
KFRG - Farmingdale, New York, USA
Distance from station: WSW 20mi, 33km
Updated: Wed, 04/14/2021 12:53 am EDT
Clear
Clear
 Wind from SSW
Wind: SSW 8 mph , 13 km/h
Temperature: 48°F , 9°C
Wind Chill: 44°F , 7°C
Dew Point: 39°F , 4°C
Humidity: 71%
Barometer: 30.09 inHg , 1019 hPa
Clouds: Clear
Visibility: 10 miles , 16 km
2021/04/14 04:53 KFRG 140453Z AUTO 20007KT 10SM CLR 09/04 A3009 RMK AO2 SLP190 T00890044 401780061
KBDR - Bridgeport, Connecticut, USA
Distance from station: N 23mi, 37km
Updated: Wed, 04/14/2021 12:52 am EDT
Overcast
Overcast
 Wind from SW
Wind: SW 7 mph , 11 km/h
Temperature: 48°F , 9°C
Wind Chill: 45°F , 7°C
Dew Point: 43°F , 6°C
Humidity: 82%
Barometer: 30.08 inHg , 1018.6 hPa
Clouds: Overcast
Visibility: 10 miles , 16 km
Cloud details: Overcast 7500 ft
2021/04/14 04:52 KBDR 140452Z AUTO 22006KT 10SM OVC075 09/06 A3008 RMK AO2 SLP185 T00940056 401610061
 
KFOK - Westhampton Beac, New York, USA
Distance from station: E 23mi, 37km
Updated: Wed, 04/14/2021 12:53 am EDT
Mostly cloudy
Mostly cloudy
 Wind from calm
Wind: Calm
Temperature: 37°F , 3°C
Dew Point: 36°F , 2°C
Humidity: 93%
Barometer: 30.09 inHg , 1019 hPa
Clouds: Mostly cloudy
Visibility: 10 miles , 16 km
Cloud details: Mostly cloudy 8000 ft
2021/04/14 04:53 KFOK 140453Z AUTO 00000KT 10SM BKN080 03/02 A3009 RMK AO2 SLP189 T00280022 401560011
KHVN - New Haven/Tweed, Connecticut, USA
Distance from station: NNE 31mi, 50km
Updated: Wed, 04/14/2021 12:53 am EDT
Overcast
Overcast
 Wind from WSW
Wind: WSW 5 mph , 7 km/h
Temperature: 48°F , 9°C
Wind Chill: 46°F , 8°C
Dew Point: 43°F , 6°C
Humidity: 82%
Barometer: 30.07 inHg , 1018.3 hPa
Clouds: Overcast
Visibility: 10 miles , 16 km
Cloud details: Overcast 8000 ft
2021/04/14 04:53 KHVN 140453Z AUTO 24004KT 10SM OVC080 09/06 A3007 RMK AO2 SLP182 T00940061 401890044
 
KHPN - White Plains, New York, USA
Distance from station: WNW 37mi, 60km
Updated: Wed, 04/14/2021 12:56 am EDT
Partly cloudy
Partly cloudy
 Wind from SSE
Wind: SSE 5 mph , 7 km/h
Temperature: 45°F , 7°C
Wind Chill: 42°F , 6°C
Dew Point: 37°F , 3°C
Humidity: 76%
Barometer: 30.07 inHg , 1018.3 hPa
Clouds: Partly cloudy
Visibility: 10 miles , 16 km
Cloud details: Partly cloudy 6500 ft
2021/04/14 04:56 KHPN 140456Z 16004KT 10SM SCT065 07/03 A3007 RMK AO2 SLP186 T00670033 401720044 $
KJFK - Nyc/Jfk Arpt, New York, USA
Distance from station: WSW 40mi, 64km
Updated: Wed, 04/14/2021 12:51 am EDT
Partly cloudy
Partly cloudy
 Wind from SSE
Wind: SSE 10 mph , 17 km/h
Temperature: 48°F , 9°C
Wind Chill: 44°F , 7°C
Dew Point: 39°F , 4°C
Humidity: 71%
Barometer: 30.10 inHg , 1019.3 hPa
Clouds: Partly cloudy
Visibility: 10 miles , 16 km
Cloud details: Few Clouds 7500 ft
Partly cloudy 25000 ft
2021/04/14 04:51 KJFK 140451Z 16009KT 10SM FEW075 SCT250 09/04 A3010 RMK AO2 SLP191 T00890044 401780061
 
KDXR - Danbury, Connecticut, USA
Distance from station: NNW 42mi, 68km
Updated: Wed, 04/14/2021 12:53 am EDT
Overcast
Overcast
 Wind from calm
Wind: Calm
Temperature: 50°F , 10°C
Dew Point: 39°F , 4°C
Humidity: 67%
Barometer: 30.08 inHg , 1018.6 hPa
Clouds: Overcast
Visibility: 10 miles , 16 km
Cloud details: Overcast 7000 ft
2021/04/14 04:53 KDXR 140453Z AUTO 00000KT 10SM OVC070 10/04 A3008 RMK AO2 SLP185 T01000039 401890022
KHTO - East Hampton, New York, USA
Distance from station: E 43mi, 69km
Updated: Wed, 04/14/2021 12:55 am EDT
Partly cloudy
Partly cloudy
 Wind from calm
Wind: Calm
Temperature: 37°F , 3°C
Dew Point: 37°F , 3°C
Humidity: 100%
Barometer: 30.07 inHg , 1018.3 hPa
Clouds: Partly cloudy
Visibility: 10 miles , 16 km
Cloud details: Partly cloudy 8500 ft
2021/04/14 04:55 KHTO 140455Z AUTO 00000KT 10SM SCT085 03/03 A3007 RMK AO2 T00300025 401370026
 
KOXC - Oxford/Waterbury, Connecticut, USA
Distance from station: N 43mi, 70km
Updated: Wed, 04/14/2021 12:51 am EDT
Overcast
Overcast
 Wind from SSW
Wind: SSW 5 mph , 7 km/h
Temperature: 46°F , 8°C
Wind Chill: 44°F , 7°C
Dew Point: 43°F , 6°C
Humidity: 87%
Barometer: 30.07 inHg , 1018.3 hPa
Clouds: Overcast
Visibility: 10 miles , 16 km
Cloud details: Overcast 7000 ft
2021/04/14 04:51 KOXC 140451Z AUTO 21004KT 10SM OVC070 08/06 A3007 RMK AO2 SLP197 T00780056 401670017
KLGA - Nyc/La Guardia, New York, USA
Distance from station: W 44mi, 70km
Updated: Wed, 04/14/2021 12:51 am EDT
Partly cloudy
Partly cloudy
 Wind from S
Wind: S 8 mph , 13 km/h
Temperature: 50°F , 10°C
Wind Chill: 47°F , 8°C
Dew Point: 39°F , 4°C
Humidity: 67%
Barometer: 30.08 inHg , 1018.6 hPa
Clouds: Partly cloudy
Visibility: 10 miles , 16 km
Cloud details: Few Clouds 7500 ft
Partly cloudy 25000 ft
2021/04/14 04:51 KLGA 140451Z 17007KT 10SM FEW075 SCT250 10/04 A3008 RMK AO2 SLP185 T01000039 401830072
 
KSNC - Chester, Connecticut, USA
Distance from station: NE 47mi, 76km
Updated: Wed, 04/14/2021 1:15 am EDT
Overcast
Overcast
 Wind from WSW
Wind: WSW 6 mph , 9 km/h
Temperature: 46°F , 8°C
Wind Chill: 43°F , 6°C
Dew Point: 41°F , 5°C
Humidity: 82%
Barometer: 30.05 inHg , 1017.6 hPa
Clouds: Overcast
Visibility: 10 miles , 16 km
Cloud details: Overcast 7500 ft
2021/04/14 05:15 KSNC 140515Z AUTO 24005KT 10SM OVC075 08/05 A3005 RMK AO2
KMMK - Meriden, Connecticut, USA
Distance from station: NNE 48mi, 77km
Updated: Wed, 04/14/2021 12:53 am EDT
Overcast
Overcast
 Wind from calm
Wind: Calm
Temperature: 48°F , 9°C
Dew Point: 39°F , 4°C
Humidity: 71%
Barometer: 30.06 inHg , 1017.9 hPa
Clouds: Overcast
Visibility: 10 miles , 16 km
Cloud details: Overcast 8000 ft
2021/04/14 04:53 KMMK 140453Z AUTO 00000KT 10SM OVC080 09/04 A3006 RMK AO2 SLP180 T00890044 402000050
 
KNYC - Nyc/Central Park, New York, USA
Distance from station: W 48mi, 77km
Updated: Wed, 04/14/2021 12:51 am EDT
Clear
Clear
 Wind from varies
Wind: varies 6 mph , 9 km/h
Temperature: 50°F , 10°C
Wind Chill: 48°F , 9°C
Dew Point: 39°F , 4°C
Humidity: 67%
Barometer: 30.10 inHg , 1019.3 hPa
Clouds: Clear
Visibility: 10 miles , 16 km
2021/04/14 04:51 KNYC 140451Z AUTO VRB05KT 10SM CLR 10/04 A3010 RMK AO2 SLP185 T01000044 401830067 $